Brisas de Loiza, Puerto Rico
Current Conditions -  °F | °C
As of 5:56 PM on Sunday 23 Nov 2014 (Local Time) from TJSJ Reporting Station
Scattered Clouds Scattered Clouds  
Wind Chill: 82°   Ceiling: Unl
Heat Index: 87°   Visibility: 10mi
Dew Point: 73°   Wind: 8mph
Humidity: 74%   Direction: 90°E
Pressure: 29.98"   Gusts: NA
Location:  18.3817°N, 65.8302°W
Report Text: TJSJ 232156Z 09007KT 10SM FEW022 SCT040 SCT070 28/23 A2998 RMK AO2 SLP149 T02780228 $
Loading
Personal Weather Stations






























Interactive Weather Map New forecast layout! Learn more

10-Day Weather Forecast

Advertisements
Track Severe Weather on mobile